createdAt,value
2022-11-13T00:01:49.349Z,101717.81
2022-11-13T00:04:35.470Z,101710.34
2022-11-13T00:07:21.833Z,101718.66
2022-11-13T00:10:07.848Z,101712.47
2022-11-13T00:12:54.327Z,101705.25
2022-11-13T00:15:40.432Z,101705.25
2022-11-13T00:18:27.343Z,101708.66
2022-11-13T00:21:18.759Z,101691.84
2022-11-13T00:24:04.606Z,101693.13
2022-11-13T00:26:50.613Z,101693.34
2022-11-13T00:29:36.437Z,101697.59
2022-11-13T00:32:22.565Z,101694.41
2022-11-13T00:35:08.974Z,101690.56
2022-11-13T00:37:54.889Z,101684.00
2022-11-13T00:40:41.998Z,101673.75
2022-11-13T00:43:27.997Z,101675.91
2022-11-13T00:46:14.153Z,101674.16
2022-11-13T00:49:00.027Z,101677.81
2022-11-13T00:51:46.066Z,101663.53
2022-11-13T00:54:32.786Z,101665.47
2022-11-13T00:57:19.157Z,101656.53
2022-11-13T01:00:05.329Z,101661.44
2022-11-13T01:02:51.219Z,101662.91
2022-11-13T01:05:39.128Z,101665.66
2022-11-13T01:08:25.596Z,101660.97
2022-11-13T01:11:16.049Z,101663.31
2022-11-13T01:14:01.780Z,101655.44
2022-11-13T01:16:49.213Z,101654.59
2022-11-13T01:19:35.773Z,101658.66
2022-11-13T01:22:21.962Z,101660.97
2022-11-13T01:25:10.645Z,101658.47
2022-11-13T01:27:57.229Z,101655.69
2022-11-13T01:30:51.870Z,101658.38
2022-11-13T01:33:38.520Z,101648.41
2022-11-13T01:36:25.666Z,101660.53
2022-11-13T01:39:13.522Z,101658.38
2022-11-13T01:42:00.469Z,101657.53
2022-11-13T01:44:46.252Z,101650.94
2022-11-13T01:47:32.652Z,101652.66
2022-11-13T01:50:20.839Z,101653.75
2022-11-13T01:53:06.583Z,101657.34
2022-11-13T01:55:52.750Z,101645.63
2022-11-13T01:58:38.778Z,101644.31
2022-11-13T02:01:25.038Z,101650.50
2022-11-13T02:04:11.998Z,101644.53
2022-11-13T02:06:59.668Z,101643.28
2022-11-13T02:09:47.503Z,101643.03
2022-11-13T02:12:36.256Z,101643.28
2022-11-13T02:15:24.167Z,101637.75
2022-11-13T02:18:12.514Z,101646.72
2022-11-13T02:21:13.970Z,101641.09
2022-11-13T02:24:01.743Z,101640.28
2022-11-13T02:26:48.601Z,101649.00
2022-11-13T02:29:34.731Z,101647.72
2022-11-13T02:32:21.070Z,101647.09
2022-11-13T02:35:06.969Z,101634.34
2022-11-13T02:37:54.954Z,101630.66
2022-11-13T02:40:40.809Z,101619.22
2022-11-13T02:43:27.364Z,101616.00
2022-11-13T02:46:13.157Z,101625.38
2022-11-13T02:48:59.191Z,101621.72
2022-11-13T02:51:45.519Z,101623.69
2022-11-13T02:54:31.874Z,101610.69
2022-11-13T02:57:17.784Z,101610.09
2022-11-13T03:00:07.894Z,101611.91
2022-11-13T03:02:57.076Z,101610.66
2022-11-13T03:05:43.770Z,101615.78
2022-11-13T03:08:32.071Z,101611.94
2022-11-13T03:11:18.635Z,101608.81
2022-11-13T03:14:04.508Z,101607.06
2022-11-13T03:16:50.780Z,101608.97
2022-11-13T03:19:36.957Z,101608.78
2022-11-13T03:22:23.128Z,101608.94
2022-11-13T03:25:10.664Z,101608.94
2022-11-13T03:27:57.120Z,101606.97
2022-11-13T03:30:43.129Z,101617.19
2022-11-13T03:33:29.301Z,101617.63
2022-11-13T03:36:15.250Z,101615.47
2022-11-13T03:39:01.303Z,101608.66
2022-11-13T03:41:47.511Z,101606.53
2022-11-13T03:44:33.645Z,101605.19
2022-11-13T03:47:19.903Z,101600.34
2022-11-13T03:50:06.265Z,101592.91
2022-11-13T03:52:52.624Z,101589.03
2022-11-13T03:55:39.366Z,101599.50
2022-11-13T03:58:25.604Z,101600.84
2022-11-13T04:01:11.906Z,101596.34
2022-11-13T04:03:57.673Z,101601.41
2022-11-13T04:06:43.796Z,101604.19
2022-11-13T04:09:29.810Z,101607.78
2022-11-13T04:12:15.796Z,101602.03
2022-11-13T04:15:03.631Z,101613.97
2022-11-13T04:17:49.874Z,101613.91
2022-11-13T04:20:36.447Z,101614.59
2022-11-13T04:23:22.726Z,101612.94
2022-11-13T04:26:08.878Z,101613.13
2022-11-13T04:28:55.587Z,101619.72
2022-11-13T04:31:42.233Z,101618.88
2022-11-13T04:34:28.483Z,101615.47
2022-11-13T04:37:14.394Z,101622.72
2022-11-13T04:40:00.531Z,101621.81
2022-11-13T04:42:49.335Z,101619.91
2022-11-13T05:57:58.712Z,101628.47
2022-11-13T06:00:46.015Z,101630.75
2022-11-13T06:03:32.027Z,101625.53
2022-11-13T06:06:19.392Z,101630.38
2022-11-13T06:09:08.658Z,101627.72
2022-11-13T06:11:54.537Z,101624.31
2022-11-13T06:14:40.908Z,101626.47
2022-11-13T06:17:26.896Z,101629.03
2022-11-13T06:20:12.684Z,101630.94
2022-11-13T06:22:59.535Z,101623.88
2022-11-13T06:25:45.863Z,101622.34
2022-11-13T06:28:32.764Z,101633.13
2022-11-13T06:31:22.273Z,101630.31
2022-11-13T06:34:08.391Z,101640.66
2022-11-13T06:36:54.306Z,101637.50
2022-11-13T06:39:40.314Z,101632.59
2022-11-13T06:42:27.072Z,101627.84
2022-11-13T06:45:13.411Z,101629.81
2022-11-13T06:48:00.258Z,101618.69
2022-11-13T06:50:48.762Z,101612.53
2022-11-13T06:53:34.942Z,101620.91
2022-11-13T06:56:21.079Z,101608.81
2022-11-13T06:59:08.599Z,101610.38
2022-11-13T07:01:54.501Z,101602.94
2022-11-13T07:04:40.719Z,101605.16
2022-11-13T07:07:27.497Z,101602.59
2022-11-13T07:10:13.796Z,101600.13
2022-11-13T07:13:00.689Z,101599.97
2022-11-13T07:15:47.437Z,101604.16
2022-11-13T07:18:34.389Z,101594.06
2022-11-13T07:21:21.380Z,101591.81
2022-11-13T07:24:11.468Z,101586.50
2022-11-13T07:27:00.193Z,101592.44
2022-11-13T07:29:46.019Z,101601.78
2022-11-13T07:32:32.246Z,101597.75
2022-11-13T07:35:18.370Z,101609.69
2022-11-13T07:38:04.307Z,101598.75
2022-11-13T07:40:50.597Z,101604.16
2022-11-13T07:43:36.654Z,101611.66
2022-11-13T07:46:22.791Z,101605.44
2022-11-13T07:49:08.676Z,101607.03
2022-11-13T07:51:54.899Z,101614.91
2022-11-13T07:54:42.129Z,101607.31
2022-11-13T07:57:28.190Z,101607.81
2022-11-13T08:00:14.541Z,101615.16
2022-11-13T08:03:27.124Z,101615.31
2022-11-13T08:06:13.189Z,101612.47
2022-11-13T08:08:59.467Z,101615.78
2022-11-13T08:11:45.211Z,101613.72
2022-11-13T08:14:31.411Z,101612.56
2022-11-13T08:17:19.015Z,101615.19
2022-11-13T08:20:05.651Z,101613.72
2022-11-13T08:22:51.943Z,101608.75
2022-11-13T08:25:38.169Z,101619.56
2022-11-13T08:28:24.497Z,101597.06
2022-11-13T08:31:11.275Z,101601.00
2022-11-13T08:33:57.691Z,101599.41
2022-11-13T08:36:43.488Z,101599.91
2022-11-13T08:39:29.495Z,101603.13
2022-11-13T08:42:15.520Z,101595.75
2022-11-13T08:45:01.235Z,101597.25
2022-11-13T08:47:48.646Z,101592.84
2022-11-13T08:50:34.703Z,101590.66
2022-11-13T08:53:20.981Z,101601.00
2022-11-13T08:56:07.001Z,101586.22
2022-11-13T08:58:52.977Z,101591.81
2022-11-13T09:01:39.796Z,101585.16
2022-11-13T09:04:26.469Z,101578.75
2022-11-13T09:07:12.765Z,101588.06
2022-11-13T09:09:58.778Z,101582.78
2022-11-13T09:12:45.065Z,101571.97
2022-11-13T09:15:31.437Z,101571.06
2022-11-13T09:18:17.673Z,101562.47
2022-11-13T09:21:03.696Z,101562.81
2022-11-13T09:23:49.666Z,101554.03
2022-11-13T09:26:36.020Z,101550.91
2022-11-13T09:29:24.722Z,101544.72
2022-11-13T09:32:11.391Z,101550.94
2022-11-13T09:34:57.529Z,101554.09
2022-11-13T09:37:43.653Z,101562.03
2022-11-13T09:40:31.106Z,101552.50
2022-11-13T09:43:23.748Z,101567.94
2022-11-13T09:46:28.343Z,101562.16
2022-11-13T09:49:24.816Z,101552.81
2022-11-13T09:52:12.493Z,101558.53
2022-11-13T09:55:00.760Z,101546.88
2022-11-13T09:57:58.366Z,101554.41
2022-11-13T10:00:44.840Z,101533.81
2022-11-13T10:04:04.631Z,101540.72
2022-11-13T10:06:47.887Z,101534.06
2022-11-13T10:09:35.516Z,101534.56
2022-11-13T10:12:22.514Z,101533.09
2022-11-13T10:15:08.849Z,101534.94
2022-11-13T10:18:14.922Z,101531.28
2022-11-13T10:21:09.674Z,101526.81
2022-11-13T10:23:56.541Z,101522.09
2022-11-13T10:26:43.130Z,101523.31
2022-11-13T10:29:29.938Z,101519.50
2022-11-13T10:32:29.568Z,101523.78
2022-11-13T10:35:28.746Z,101516.66
2022-11-13T10:38:32.963Z,101508.47
2022-11-13T10:41:20.271Z,101522.25
2022-11-13T10:44:22.550Z,101519.16
2022-11-13T10:47:36.195Z,101523.34
2022-11-13T10:50:27.823Z,101516.56
2022-11-13T10:53:14.904Z,101517.25
2022-11-13T10:56:00.726Z,101506.22
2022-11-13T10:59:01.821Z,101509.28
2022-11-13T11:01:53.356Z,101502.94
2022-11-13T11:04:39.404Z,101496.44
2022-11-13T11:07:26.628Z,101501.72
2022-11-13T11:10:28.967Z,101495.84
2022-11-13T11:13:21.095Z,101486.16
2022-11-13T11:16:07.353Z,101485.78
2022-11-13T11:18:54.419Z,101487.97
2022-11-13T11:21:44.319Z,101487.19
2022-11-13T11:24:32.043Z,101485.84
2022-11-13T11:27:23.121Z,101485.19
2022-11-13T11:30:14.389Z,101475.41
2022-11-13T11:33:05.026Z,101481.97
2022-11-13T11:35:54.270Z,101476.69
2022-11-13T11:39:06.664Z,101467.00
2022-11-13T11:41:57.879Z,101478.78
2022-11-13T11:44:51.907Z,101462.75
2022-11-13T11:47:38.749Z,101464.47
2022-11-13T11:50:34.236Z,101452.75
2022-11-13T11:53:26.412Z,101453.59
2022-11-13T11:56:15.941Z,101456.34
2022-11-13T11:59:02.164Z,101458.75
2022-11-13T12:01:53.971Z,101445.53
2022-11-13T12:04:47.759Z,101445.72
2022-11-13T12:07:36.887Z,101453.97
2022-11-13T12:10:42.427Z,101446.47
2022-11-13T12:13:43.628Z,101452.88
2022-11-13T12:16:34.744Z,101442.56
2022-11-13T12:19:31.019Z,101445.50
2022-11-13T12:22:20.091Z,101430.50
2022-11-13T12:25:09.918Z,101433.25
2022-11-13T12:27:59.321Z,101439.88
2022-11-13T12:30:57.883Z,101444.81
2022-11-13T12:33:44.303Z,101435.47
2022-11-13T12:36:30.576Z,101442.84
2022-11-13T12:39:22.584Z,101448.88
2022-11-13T12:42:12.044Z,101446.97
2022-11-13T12:45:01.150Z,101445.47
2022-11-13T12:47:52.575Z,101449.66
2022-11-13T12:50:38.505Z,101452.00
2022-11-13T12:53:26.717Z,101440.81
2022-11-13T12:56:18.087Z,101428.19
2022-11-13T13:02:16.163Z,101457.25
2022-11-13T13:05:07.716Z,101440.22
2022-11-13T13:07:53.938Z,101445.31
2022-11-13T13:10:52.578Z,101452.22
2022-11-13T13:13:45.740Z,101454.41
2022-11-13T13:16:32.408Z,101445.78
2022-11-13T13:19:26.064Z,101440.81
2022-11-13T13:22:23.547Z,101438.28
2022-11-13T13:25:27.302Z,101448.97
2022-11-13T13:28:18.185Z,101440.97
2022-11-13T13:31:16.903Z,101433.44
2022-11-13T13:34:18.786Z,101438.66
2022-11-13T13:37:17.099Z,101440.97
2022-11-13T13:40:22.853Z,101427.69
2022-11-13T13:43:29.376Z,101427.53
2022-11-13T13:46:16.886Z,101443.03
2022-11-13T13:49:09.763Z,101443.28
2022-11-13T13:51:55.982Z,101437.56
2022-11-13T13:54:42.508Z,101443.09
2022-11-13T13:57:28.799Z,101443.72
2022-11-13T14:00:15.965Z,101448.44
2022-11-13T14:03:02.258Z,101444.44
2022-11-13T14:05:48.575Z,101450.38
2022-11-13T14:08:34.617Z,101447.72
2022-11-13T14:14:35.786Z,101447.66
2022-11-13T14:17:24.362Z,101450.91
2022-11-13T14:20:11.438Z,101449.56
2022-11-13T14:22:57.471Z,101451.59
2022-11-13T14:25:45.102Z,101454.06
2022-11-13T14:28:32.185Z,101454.06
2022-11-13T14:31:18.120Z,101446.78
2022-11-13T14:34:10.620Z,101456.53
2022-11-13T14:36:56.748Z,101460.56
2022-11-13T14:39:44.072Z,101452.00
2022-11-13T14:42:37.421Z,101453.31
2022-11-13T14:45:30.190Z,101446.91
2022-11-13T14:48:20.789Z,101451.72
2022-11-13T14:51:07.645Z,101446.41
2022-11-13T14:53:58.075Z,101451.19
2022-11-13T14:56:44.833Z,101455.28
2022-11-13T14:59:30.924Z,101452.88
2022-11-13T15:02:17.371Z,101449.59
2022-11-13T15:05:03.757Z,101461.69
2022-11-13T15:12:15.093Z,101467.31
2022-11-13T15:15:01.193Z,101471.47
2022-11-13T15:17:48.131Z,101465.38
2022-11-13T15:20:36.722Z,101457.94
2022-11-13T15:23:22.838Z,101460.25
2022-11-13T15:26:10.347Z,101476.13
2022-11-13T15:28:56.381Z,101461.78
2022-11-13T15:31:43.150Z,101468.88
2022-11-13T15:34:29.848Z,101458.00
2022-11-13T15:37:16.175Z,101468.97
2022-11-13T15:40:03.564Z,101466.66
2022-11-13T15:42:49.766Z,101467.50
2022-11-13T15:45:44.043Z,101480.75
2022-11-13T15:48:30.585Z,101462.88
2022-11-13T15:51:18.427Z,101473.19
2022-11-13T15:54:15.055Z,101467.28
2022-11-13T15:57:01.515Z,101465.63
2022-11-13T15:59:47.604Z,101475.03
2022-11-13T16:02:35.566Z,101482.41
2022-11-13T16:05:25.810Z,101478.66
2022-11-13T16:08:12.424Z,101480.72
2022-11-13T16:10:58.971Z,101471.03
2022-11-13T16:13:46.029Z,101480.59
2022-11-13T16:16:34.057Z,101470.69
2022-11-13T16:19:22.807Z,101469.78
2022-11-13T16:22:13.012Z,101473.66
2022-11-13T16:25:00.414Z,101477.81
2022-11-13T16:27:46.440Z,101477.31
2022-11-13T16:30:32.524Z,101475.31
2022-11-13T16:33:18.528Z,101480.88
2022-11-13T16:36:08.905Z,101484.91
2022-11-13T16:38:57.749Z,101490.00
2022-11-13T16:41:44.195Z,101489.09
2022-11-13T16:44:30.233Z,101506.28
2022-11-13T16:47:25.561Z,101495.34
2022-11-13T16:50:17.792Z,101504.56
2022-11-13T16:53:03.577Z,101507.34
2022-11-13T16:55:49.653Z,101507.19
2022-11-13T16:58:36.515Z,101493.28
2022-11-13T17:01:22.662Z,101500.19
2022-11-13T17:04:12.054Z,101511.31
2022-11-13T17:06:58.164Z,101501.72
2022-11-13T17:09:44.932Z,101513.06
2022-11-13T17:12:31.714Z,101516.09
2022-11-13T17:15:18.149Z,101516.72
2022-11-13T17:18:04.097Z,101512.06
2022-11-13T17:20:51.163Z,101518.34
2022-11-13T17:23:38.105Z,101522.63
2022-11-13T17:26:24.408Z,101517.88
2022-11-13T17:29:10.534Z,101520.22
2022-11-13T17:31:56.537Z,101509.13
2022-11-13T17:34:43.726Z,101526.22
2022-11-13T17:37:30.213Z,101522.72
2022-11-13T17:40:18.346Z,101516.44
2022-11-13T17:43:04.302Z,101516.81
2022-11-13T17:45:51.154Z,101527.66
2022-11-13T17:48:37.426Z,101517.50
2022-11-13T17:51:23.535Z,101524.09
2022-11-13T17:54:09.792Z,101525.53
2022-11-13T17:56:56.056Z,101538.56
2022-11-13T17:59:42.085Z,101533.56
2022-11-13T18:02:28.675Z,101528.44
2022-11-13T18:05:16.727Z,101543.41
2022-11-13T18:08:03.154Z,101539.63
2022-11-13T18:10:49.448Z,101543.81
2022-11-13T18:13:36.876Z,101527.16
2022-11-13T18:16:24.564Z,101529.63
2022-11-13T18:19:11.384Z,101531.81
2022-11-13T18:21:58.177Z,101541.38
2022-11-13T18:24:44.469Z,101528.25
2022-11-13T18:27:31.132Z,101535.94
2022-11-13T18:30:17.642Z,101530.19
2022-11-13T18:33:03.941Z,101532.09
2022-11-13T18:35:50.191Z,101532.19
2022-11-13T18:38:36.386Z,101541.06
2022-11-13T18:41:23.256Z,101533.88
2022-11-13T18:44:09.499Z,101542.72
2022-11-13T18:46:55.865Z,101528.44
2022-11-13T18:49:41.565Z,101534.84
2022-11-13T18:52:28.157Z,101541.66
2022-11-13T18:55:15.635Z,101539.56
2022-11-13T18:58:03.061Z,101545.13
2022-11-13T19:00:49.214Z,101536.94
2022-11-13T19:03:35.273Z,101539.41
2022-11-13T19:06:21.803Z,101543.47
2022-11-13T19:09:10.009Z,101543.09
2022-11-13T19:11:56.662Z,101541.72
2022-11-13T19:14:46.263Z,101552.91
2022-11-13T19:17:34.104Z,101547.25
2022-11-13T19:20:20.346Z,101552.13
2022-11-13T19:23:09.198Z,101543.78
2022-11-13T19:25:55.755Z,101550.78
2022-11-13T19:28:41.787Z,101553.94
2022-11-13T19:31:27.690Z,101551.50
2022-11-13T19:34:14.733Z,101548.63
2022-11-13T19:37:00.639Z,101545.25
2022-11-13T19:39:48.140Z,101548.72
2022-11-13T19:42:39.251Z,101544.25
2022-11-13T19:45:27.928Z,101549.81
2022-11-13T19:48:17.856Z,101535.56
2022-11-13T19:51:10.106Z,101540.16
2022-11-13T19:53:56.921Z,101538.06
2022-11-13T19:56:42.844Z,101531.38
2022-11-13T19:59:28.805Z,101530.31
2022-11-13T20:02:15.628Z,101541.25
2022-11-13T20:05:02.134Z,101540.59
2022-11-13T20:07:49.934Z,101535.72
2022-11-13T20:10:36.698Z,101539.72
2022-11-13T20:13:23.570Z,101541.00
2022-11-13T20:16:11.344Z,101541.84
2022-11-13T20:18:58.454Z,101528.78
2022-11-13T20:21:44.687Z,101537.41
2022-11-13T20:24:31.656Z,101548.94
2022-11-13T20:27:19.566Z,101536.75
2022-11-13T20:30:06.740Z,101538.19
2022-11-13T20:32:53.021Z,101540.47
2022-11-13T20:35:41.808Z,101544.75
2022-11-13T20:38:28.056Z,101549.06
2022-11-13T20:41:14.425Z,101551.66
2022-11-13T20:44:03.431Z,101553.81
2022-11-13T20:46:49.623Z,101562.34
2022-11-13T20:49:37.193Z,101559.00
2022-11-13T20:52:23.361Z,101553.28
2022-11-13T20:55:09.648Z,101554.75
2022-11-13T20:57:56.842Z,101562.75
2022-11-13T21:00:43.066Z,101552.38
2022-11-13T21:03:29.837Z,101554.91
2022-11-13T21:06:17.443Z,101556.38
2022-11-13T21:09:05.903Z,101558.22
2022-11-13T21:11:51.974Z,101555.31
2022-11-13T21:14:38.607Z,101558.72
2022-11-13T21:17:24.562Z,101559.84
2022-11-13T21:20:14.835Z,101556.28
2022-11-13T21:23:01.285Z,101555.22
2022-11-13T21:25:47.268Z,101557.31
2022-11-13T21:28:34.050Z,101557.31
2022-11-13T21:31:20.828Z,101556.97
2022-11-13T21:34:09.264Z,101547.13
2022-11-13T21:36:55.464Z,101542.00
2022-11-13T21:39:42.841Z,101546.53
2022-11-13T21:42:28.717Z,101548.41
2022-11-13T21:45:14.971Z,101550.28
2022-11-13T21:48:01.326Z,101543.31
2022-11-13T21:50:48.073Z,101546.06
2022-11-13T21:53:36.780Z,101564.00
2022-11-13T21:56:23.263Z,101555.88
2022-11-13T21:59:10.806Z,101545.91
2022-11-13T22:01:58.327Z,101537.56
2022-11-13T22:04:44.431Z,101550.47
2022-11-13T22:07:30.711Z,101553.81
2022-11-13T22:10:19.147Z,101547.47
2022-11-13T22:13:05.177Z,101541.88
2022-11-13T22:15:52.270Z,101546.88
2022-11-13T22:18:38.228Z,101546.97
2022-11-13T22:21:26.283Z,101542.53
2022-11-13T22:24:12.419Z,101550.41
2022-11-13T22:26:59.766Z,101559.38
2022-11-13T22:29:47.559Z,101552.41
2022-11-13T22:32:34.633Z,101559.81
2022-11-13T22:35:20.920Z,101558.06
2022-11-13T22:38:08.892Z,101558.94
2022-11-13T22:40:55.628Z,101550.56
2022-11-13T22:43:42.454Z,101554.72
2022-11-13T22:46:30.841Z,101545.84
2022-11-13T22:49:19.348Z,101552.19
2022-11-13T22:52:05.452Z,101554.59
2022-11-13T22:54:51.855Z,101560.09
2022-11-13T22:57:38.946Z,101550.59
2022-11-13T23:00:25.063Z,101555.44
2022-11-13T23:03:11.390Z,101543.75
2022-11-13T23:06:00.987Z,101555.03
2022-11-13T23:08:47.738Z,101563.34
2022-11-13T23:11:40.863Z,101562.72
2022-11-13T23:14:27.156Z,101560.38
2022-11-13T23:17:14.015Z,101567.03
2022-11-13T23:19:59.978Z,101563.81
2022-11-13T23:22:48.557Z,101566.78
2022-11-13T23:25:36.314Z,101568.25
2022-11-13T23:28:22.142Z,101572.75
2022-11-13T23:31:08.610Z,101573.16
2022-11-13T23:33:55.275Z,101579.97
2022-11-13T23:36:41.549Z,101577.03
2022-11-13T23:39:28.442Z,101574.44
2022-11-13T23:42:18.056Z,101579.78
2022-11-13T23:45:10.595Z,101580.63
2022-11-13T23:47:56.920Z,101584.25
2022-11-13T23:50:43.035Z,101577.03
2022-11-13T23:53:28.984Z,101579.13
2022-11-13T23:56:15.472Z,101577.25
2022-11-13T23:59:01.296Z,101576.81
